sensor_id;sensor_type;location;lat;lon;timestamp;pressure;altitude;pressure_sealevel;temperature;humidity
41102;BME280;26845;50.190;19.178;2023-01-29T00:01:50;99578.98;;;-0.90;80.82
41102;BME280;26845;50.190;19.178;2023-01-29T00:04:16;99582.66;;;-1.03;80.93
41102;BME280;26845;50.190;19.178;2023-01-29T00:06:42;99581.13;;;-1.09;80.98
41102;BME280;26845;50.190;19.178;2023-01-29T00:09:09;99582.90;;;-1.07;81.07
41102;BME280;26845;50.190;19.178;2023-01-29T00:11:35;99585.73;;;-1.05;81.19
41102;BME280;26845;50.190;19.178;2023-01-29T00:14:01;99582.16;;;-1.03;81.32
41102;BME280;26845;50.190;19.178;2023-01-29T00:16:27;99584.30;;;-1.01;81.18
41102;BME280;26845;50.190;19.178;2023-01-29T00:18:53;99587.14;;;-1.06;81.13
41102;BME280;26845;50.190;19.178;2023-01-29T00:21:20;99589.34;;;-1.14;80.78
41102;BME280;26845;50.190;19.178;2023-01-29T00:23:47;99592.98;;;-1.14;81.04
41102;BME280;26845;50.190;19.178;2023-01-29T00:26:13;99593.36;;;-1.12;81.28
41102;BME280;26845;50.190;19.178;2023-01-29T00:28:41;99593.90;;;-1.11;81.18
41102;BME280;26845;50.190;19.178;2023-01-29T00:33:33;99600.91;;;-1.17;81.23
41102;BME280;26845;50.190;19.178;2023-01-29T00:36:08;99600.14;;;-1.16;81.49
41102;BME280;26845;50.190;19.178;2023-01-29T00:38:36;99599.38;;;-1.17;81.13
41102;BME280;26845;50.190;19.178;2023-01-29T00:41:13;99601.11;;;-1.17;81.46
41102;BME280;26845;50.190;19.178;2023-01-29T00:43:59;99599.98;;;-1.10;81.35
41102;BME280;26845;50.190;19.178;2023-01-29T00:46:44;99601.52;;;-1.05;81.23
41102;BME280;26845;50.190;19.178;2023-01-29T00:49:11;99605.27;;;-1.04;81.11
41102;BME280;26845;50.190;19.178;2023-01-29T00:51:39;99609.79;;;-1.04;81.16
41102;BME280;26845;50.190;19.178;2023-01-29T00:54:05;99609.96;;;-1.05;81.17
41102;BME280;26845;50.190;19.178;2023-01-29T00:56:33;99609.00;;;-1.06;81.19
41102;BME280;26845;50.190;19.178;2023-01-29T00:59:00;99605.29;;;-1.03;80.96
41102;BME280;26845;50.190;19.178;2023-01-29T01:01:26;99609.90;;;-1.02;80.57
41102;BME280;26845;50.190;19.178;2023-01-29T01:04:11;99611.56;;;-1.06;80.68
41102;BME280;26845;50.190;19.178;2023-01-29T01:06:41;99615.98;;;-1.06;80.68
41102;BME280;26845;50.190;19.178;2023-01-29T01:09:08;99610.74;;;-1.08;80.50
41102;BME280;26845;50.190;19.178;2023-01-29T01:11:53;99605.34;;;-1.15;80.03
41102;BME280;26845;50.190;19.178;2023-01-29T01:14:19;99617.54;;;-1.25;79.80
41102;BME280;26845;50.190;19.178;2023-01-29T01:16:46;99626.84;;;-1.36;80.33
41102;BME280;26845;50.190;19.178;2023-01-29T01:19:13;99630.31;;;-1.34;80.51
41102;BME280;26845;50.190;19.178;2023-01-29T01:21:39;99630.63;;;-1.33;80.50
41102;BME280;26845;50.190;19.178;2023-01-29T01:24:11;99633.27;;;-1.32;80.40
41102;BME280;26845;50.190;19.178;2023-01-29T01:26:37;99631.83;;;-1.36;80.41
41102;BME280;26845;50.190;19.178;2023-01-29T01:29:05;99624.58;;;-1.38;80.38
41102;BME280;26845;50.190;19.178;2023-01-29T01:31:31;99619.81;;;-1.35;80.25
41102;BME280;26845;50.190;19.178;2023-01-29T01:33:57;99615.65;;;-1.32;80.16
41102;BME280;26845;50.190;19.178;2023-01-29T01:36:24;99613.67;;;-1.31;80.35
41102;BME280;26845;50.190;19.178;2023-01-29T01:38:50;99613.27;;;-1.27;80.34
41102;BME280;26845;50.190;19.178;2023-01-29T01:41:18;99609.38;;;-1.24;80.53
41102;BME280;26845;50.190;19.178;2023-01-29T01:43:54;99608.10;;;-1.20;80.44
41102;BME280;26845;50.190;19.178;2023-01-29T01:46:22;99602.88;;;-1.20;80.24
41102;BME280;26845;50.190;19.178;2023-01-29T01:48:55;99601.45;;;-1.16;80.69
41102;BME280;26845;50.190;19.178;2023-01-29T01:51:25;99606.96;;;-1.08;80.30
41102;BME280;26845;50.190;19.178;2023-01-29T01:54:06;99602.05;;;-1.07;80.29
41102;BME280;26845;50.190;19.178;2023-01-29T01:56:37;99604.24;;;-1.26;79.72
41102;BME280;26845;50.190;19.178;2023-01-29T01:59:08;99602.77;;;-1.51;80.09
41102;BME280;26845;50.190;19.178;2023-01-29T02:01:35;99598.38;;;-1.69;80.41
41102;BME280;26845;50.190;19.178;2023-01-29T02:04:10;99592.61;;;-1.84;80.54
41102;BME280;26845;50.190;19.178;2023-01-29T02:06:58;99592.95;;;-2.02;80.89
41102;BME280;26845;50.190;19.178;2023-01-29T02:10:04;99592.59;;;-2.17;80.95
41102;BME280;26845;50.190;19.178;2023-01-29T02:12:32;99587.30;;;-2.25;81.38
41102;BME280;26845;50.190;19.178;2023-01-29T02:14:58;99575.88;;;-2.30;81.13
41102;BME280;26845;50.190;19.178;2023-01-29T02:17:24;99574.83;;;-2.30;81.19
41102;BME280;26845;50.190;19.178;2023-01-29T02:20:23;99571.63;;;-2.37;81.74
41102;BME280;26845;50.190;19.178;2023-01-29T02:28:27;99576.39;;;-2.49;81.53
41102;BME280;26845;50.190;19.178;2023-01-29T02:31:23;99577.00;;;-2.44;81.33
41102;BME280;26845;50.190;19.178;2023-01-29T02:34:07;99578.25;;;-2.43;81.55
41102;BME280;26845;50.190;19.178;2023-01-29T02:40:36;99562.59;;;-2.56;81.58
41102;BME280;26845;50.190;19.178;2023-01-29T02:43:05;99561.59;;;-2.63;81.81
41102;BME280;26845;50.190;19.178;2023-01-29T02:49:01;99563.73;;;-2.67;81.65
41102;BME280;26845;50.190;19.178;2023-01-29T02:51:38;99563.95;;;-2.70;81.45
41102;BME280;26845;50.190;19.178;2023-01-29T02:54:18;99571.32;;;-2.72;81.45
41102;BME280;26845;50.190;19.178;2023-01-29T02:56:53;99576.85;;;-2.68;81.47
41102;BME280;26845;50.190;19.178;2023-01-29T02:59:58;99578.27;;;-2.64;81.53
41102;BME280;26845;50.190;19.178;2023-01-29T03:02:32;99583.37;;;-2.63;81.57
41102;BME280;26845;50.190;19.178;2023-01-29T03:05:03;99596.44;;;-2.60;81.43
41102;BME280;26845;50.190;19.178;2023-01-29T03:07:39;99596.94;;;-2.61;81.42
41102;BME280;26845;50.190;19.178;2023-01-29T03:12:43;99593.88;;;-2.63;81.03
41102;BME280;26845;50.190;19.178;2023-01-29T03:15:17;99589.69;;;-2.65;80.91
41102;BME280;26845;50.190;19.178;2023-01-29T03:18:10;99595.73;;;-2.70;80.72
41102;BME280;26845;50.190;19.178;2023-01-29T03:20:46;99600.92;;;-2.73;80.68
41102;BME280;26845;50.190;19.178;2023-01-29T03:23:26;99604.57;;;-2.77;80.64
41102;BME280;26845;50.190;19.178;2023-01-29T03:26:14;99605.23;;;-2.83;80.47
41102;BME280;26845;50.190;19.178;2023-01-29T03:29:00;99609.23;;;-2.86;80.52
41102;BME280;26845;50.190;19.178;2023-01-29T03:31:47;99613.00;;;-2.88;80.24
41102;BME280;26845;50.190;19.178;2023-01-29T03:34:51;99607.26;;;-2.93;79.94
41102;BME280;26845;50.190;19.178;2023-01-29T03:39:45;99612.87;;;-3.00;79.74
41102;BME280;26845;50.190;19.178;2023-01-29T03:42:28;99613.20;;;-3.03;79.41
41102;BME280;26845;50.190;19.178;2023-01-29T03:50:28;99609.55;;;-3.12;79.13
41102;BME280;26845;50.190;19.178;2023-01-29T03:58:24;99604.08;;;-3.14;78.85
41102;BME280;26845;50.190;19.178;2023-01-29T04:01:16;99602.52;;;-3.14;79.06
41102;BME280;26845;50.190;19.178;2023-01-29T04:03:50;99595.33;;;-3.12;78.32
41102;BME280;26845;50.190;19.178;2023-01-29T04:06:29;99585.38;;;-3.14;78.43
41102;BME280;26845;50.190;19.178;2023-01-29T04:09:04;99584.41;;;-3.16;78.22
41102;BME280;26845;50.190;19.178;2023-01-29T04:11:37;99586.33;;;-3.21;77.94
41102;BME280;26845;50.190;19.178;2023-01-29T04:14:06;99588.83;;;-3.24;77.92
41102;BME280;26845;50.190;19.178;2023-01-29T04:16:38;99591.36;;;-3.27;78.00
41102;BME280;26845;50.190;19.178;2023-01-29T04:19:07;99593.27;;;-3.25;78.32
41102;BME280;26845;50.190;19.178;2023-01-29T04:21:33;99591.10;;;-3.26;77.48
41102;BME280;26845;50.190;19.178;2023-01-29T04:24:02;99587.84;;;-3.28;77.47
41102;BME280;26845;50.190;19.178;2023-01-29T04:32:27;99557.98;;;-3.33;76.77
41102;BME280;26845;50.190;19.178;2023-01-29T04:35:00;99558.85;;;-3.37;76.47
41102;BME280;26845;50.190;19.178;2023-01-29T04:38:00;99555.16;;;-3.41;76.53
41102;BME280;26845;50.190;19.178;2023-01-29T04:41:00;99548.89;;;-3.44;76.49
41102;BME280;26845;50.190;19.178;2023-01-29T04:49:15;99528.77;;;-3.45;77.19
41102;BME280;26845;50.190;19.178;2023-01-29T04:56:58;99525.30;;;-3.41;76.56
41102;BME280;26845;50.190;19.178;2023-01-29T04:59:34;99521.49;;;-3.41;76.97
41102;BME280;26845;50.190;19.178;2023-01-29T05:02:01;99524.55;;;-3.37;76.77
41102;BME280;26845;50.190;19.178;2023-01-29T05:04:30;99528.55;;;-3.36;76.87
41102;BME280;26845;50.190;19.178;2023-01-29T05:07:02;99526.27;;;-3.35;76.83
41102;BME280;26845;50.190;19.178;2023-01-29T05:09:29;99525.88;;;-3.33;76.62
41102;BME280;26845;50.190;19.178;2023-01-29T05:11:56;99531.13;;;-3.33;76.76
41102;BME280;26845;50.190;19.178;2023-01-29T05:14:25;99535.42;;;-3.27;77.28
41102;BME280;26845;50.190;19.178;2023-01-29T05:16:52;99531.13;;;-3.21;77.20
41102;BME280;26845;50.190;19.178;2023-01-29T05:19:21;99530.98;;;-3.16;77.25
41102;BME280;26845;50.190;19.178;2023-01-29T05:21:48;99533.79;;;-3.11;77.24
41102;BME280;26845;50.190;19.178;2023-01-29T05:24:24;99539.85;;;-3.02;77.10
41102;BME280;26845;50.190;19.178;2023-01-29T05:26:52;99544.23;;;-2.92;77.23
41102;BME280;26845;50.190;19.178;2023-01-29T05:29:42;99543.97;;;-2.84;77.38
41102;BME280;26845;50.190;19.178;2023-01-29T05:32:09;99548.64;;;-2.76;77.56
41102;BME280;26845;50.190;19.178;2023-01-29T05:34:37;99553.95;;;-2.69;77.39
41102;BME280;26845;50.190;19.178;2023-01-29T05:37:03;99553.39;;;-2.64;77.45
41102;BME280;26845;50.190;19.178;2023-01-29T05:39:29;99552.45;;;-2.57;77.61
41102;BME280;26845;50.190;19.178;2023-01-29T05:41:55;99555.58;;;-2.50;77.71
41102;BME280;26845;50.190;19.178;2023-01-29T05:44:21;99555.64;;;-2.43;77.49
41102;BME280;26845;50.190;19.178;2023-01-29T05:46:48;99549.98;;;-2.42;77.28
41102;BME280;26845;50.190;19.178;2023-01-29T05:49:18;99545.86;;;-2.40;77.35
41102;BME280;26845;50.190;19.178;2023-01-29T05:51:45;99538.38;;;-2.31;77.73
41102;BME280;26845;50.190;19.178;2023-01-29T05:54:13;99541.57;;;-2.21;77.40
41102;BME280;26845;50.190;19.178;2023-01-29T05:56:39;99547.16;;;-2.17;77.03
41102;BME280;26845;50.190;19.178;2023-01-29T05:59:06;99554.16;;;-2.28;76.35
41102;BME280;26845;50.190;19.178;2023-01-29T06:01:32;99559.02;;;-2.43;76.52
41102;BME280;26845;50.190;19.178;2023-01-29T06:03:58;99555.22;;;-2.60;76.31
41102;BME280;26845;50.190;19.178;2023-01-29T06:06:24;99559.70;;;-2.75;76.42
41102;BME280;26845;50.190;19.178;2023-01-29T06:08:50;99559.88;;;-2.86;76.51
41102;BME280;26845;50.190;19.178;2023-01-29T06:11:17;99559.39;;;-2.93;76.55
41102;BME280;26845;50.190;19.178;2023-01-29T06:13:44;99561.89;;;-2.94;77.06
41102;BME280;26845;50.190;19.178;2023-01-29T06:16:11;99563.19;;;-2.96;76.73
41102;BME280;26845;50.190;19.178;2023-01-29T06:18:38;99561.99;;;-3.00;76.40
41102;BME280;26845;50.190;19.178;2023-01-29T06:21:06;99565.29;;;-3.02;76.87
41102;BME280;26845;50.190;19.178;2023-01-29T06:23:33;99566.64;;;-3.01;76.60
41102;BME280;26845;50.190;19.178;2023-01-29T06:26:02;99566.88;;;-2.99;76.86
41102;BME280;26845;50.190;19.178;2023-01-29T06:28:28;99569.92;;;-2.92;76.86
41102;BME280;26845;50.190;19.178;2023-01-29T06:30:59;99571.85;;;-2.86;77.00
41102;BME280;26845;50.190;19.178;2023-01-29T06:33:25;99574.41;;;-2.86;76.70
41102;BME280;26845;50.190;19.178;2023-01-29T06:35:59;99578.41;;;-2.85;76.93
41102;BME280;26845;50.190;19.178;2023-01-29T06:38:25;99577.48;;;-2.82;76.67
41102;BME280;26845;50.190;19.178;2023-01-29T06:40:52;99574.59;;;-2.82;76.68
41102;BME280;26845;50.190;19.178;2023-01-29T06:43:19;99573.81;;;-2.84;76.66
41102;BME280;26845;50.190;19.178;2023-01-29T06:45:49;99576.04;;;-2.86;76.36
41102;BME280;26845;50.190;19.178;2023-01-29T06:48:16;99572.47;;;-2.88;76.67
41102;BME280;26845;50.190;19.178;2023-01-29T06:50:43;99566.91;;;-2.87;76.65
41102;BME280;26845;50.190;19.178;2023-01-29T06:53:10;99563.30;;;-2.83;76.66
41102;BME280;26845;50.190;19.178;2023-01-29T06:55:36;99563.42;;;-2.79;76.97
41102;BME280;26845;50.190;19.178;2023-01-29T06:58:06;99560.53;;;-2.75;76.49
41102;BME280;26845;50.190;19.178;2023-01-29T07:00:33;99560.44;;;-2.77;76.48
41102;BME280;26845;50.190;19.178;2023-01-29T07:02:59;99563.89;;;-2.78;76.62
41102;BME280;26845;50.190;19.178;2023-01-29T07:05:25;99565.81;;;-2.79;76.34
41102;BME280;26845;50.190;19.178;2023-01-29T07:07:52;99565.73;;;-2.83;76.06
41102;BME280;26845;50.190;19.178;2023-01-29T07:10:18;99562.97;;;-2.83;76.43
41102;BME280;26845;50.190;19.178;2023-01-29T07:12:44;99568.90;;;-2.81;76.78
41102;BME280;26845;50.190;19.178;2023-01-29T07:15:11;99570.75;;;-2.77;76.55
41102;BME280;26845;50.190;19.178;2023-01-29T07:17:38;99572.76;;;-2.81;76.03
41102;BME280;26845;50.190;19.178;2023-01-29T07:20:04;99570.09;;;-2.86;76.17
41102;BME280;26845;50.190;19.178;2023-01-29T07:22:31;99569.75;;;-2.84;76.77
41102;BME280;26845;50.190;19.178;2023-01-29T07:24:57;99568.73;;;-2.78;76.54
41102;BME280;26845;50.190;19.178;2023-01-29T07:27:23;99571.71;;;-2.74;76.51
41102;BME280;26845;50.190;19.178;2023-01-29T07:29:50;99574.26;;;-2.77;76.22
41102;BME280;26845;50.190;19.178;2023-01-29T07:32:17;99574.77;;;-2.74;76.76
41102;BME280;26845;50.190;19.178;2023-01-29T07:34:44;99578.61;;;-2.75;76.44
41102;BME280;26845;50.190;19.178;2023-01-29T07:37:10;99574.13;;;-2.74;76.59
41102;BME280;26845;50.190;19.178;2023-01-29T07:39:36;99574.48;;;-2.75;76.59
41102;BME280;26845;50.190;19.178;2023-01-29T07:42:03;99578.57;;;-2.76;76.76
41102;BME280;26845;50.190;19.178;2023-01-29T07:44:29;99580.46;;;-2.75;76.74
41102;BME280;26845;50.190;19.178;2023-01-29T07:46:55;99587.23;;;-2.76;76.55
41102;BME280;26845;50.190;19.178;2023-01-29T07:49:21;99588.13;;;-2.79;77.22
41102;BME280;26845;50.190;19.178;2023-01-29T07:51:47;99587.25;;;-2.84;78.13
41102;BME280;26845;50.190;19.178;2023-01-29T07:54:14;99583.20;;;-2.88;78.48
41102;BME280;26845;50.190;19.178;2023-01-29T07:56:40;99584.08;;;-2.93;79.13
41102;BME280;26845;50.190;19.178;2023-01-29T07:59:06;99588.09;;;-2.98;79.45
41102;BME280;26845;50.190;19.178;2023-01-29T08:01:32;99593.70;;;-2.98;79.61
41102;BME280;26845;50.190;19.178;2023-01-29T08:03:58;99598.96;;;-2.97;79.93
41102;BME280;26845;50.190;19.178;2023-01-29T08:06:25;99606.80;;;-2.98;80.54
41102;BME280;26845;50.190;19.178;2023-01-29T08:08:51;99612.71;;;-2.98;80.72
41102;BME280;26845;50.190;19.178;2023-01-29T08:11:17;99619.23;;;-2.99;80.84
41102;BME280;26845;50.190;19.178;2023-01-29T08:13:45;99620.20;;;-2.99;81.08
41102;BME280;26845;50.190;19.178;2023-01-29T08:16:11;99620.19;;;-3.01;82.23
41102;BME280;26845;50.190;19.178;2023-01-29T08:18:37;99621.98;;;-3.04;81.65
41102;BME280;26845;50.190;19.178;2023-01-29T08:21:04;99622.27;;;-3.01;82.13
41102;BME280;26845;50.190;19.178;2023-01-29T08:23:30;99625.88;;;-3.00;83.30
41102;BME280;26845;50.190;19.178;2023-01-29T08:25:56;99621.58;;;-3.03;82.98
41102;BME280;26845;50.190;19.178;2023-01-29T08:28:22;99623.36;;;-3.02;82.18
41102;BME280;26845;50.190;19.178;2023-01-29T08:30:48;99621.23;;;-2.98;82.33
41102;BME280;26845;50.190;19.178;2023-01-29T08:33:15;99619.23;;;-2.97;82.32
41102;BME280;26845;50.190;19.178;2023-01-29T08:35:41;99622.20;;;-2.93;82.23
41102;BME280;26845;50.190;19.178;2023-01-29T08:38:08;99617.55;;;-2.87;82.48
41102;BME280;26845;50.190;19.178;2023-01-29T08:40:34;99615.83;;;-2.85;81.91
41102;BME280;26845;50.190;19.178;2023-01-29T08:43:03;99617.34;;;-2.86;81.66
41102;BME280;26845;50.190;19.178;2023-01-29T08:45:30;99614.42;;;-2.87;81.55
41102;BME280;26845;50.190;19.178;2023-01-29T08:47:58;99621.16;;;-2.88;82.05
41102;BME280;26845;50.190;19.178;2023-01-29T08:50:24;99626.04;;;-2.91;81.89
41102;BME280;26845;50.190;19.178;2023-01-29T08:52:50;99631.95;;;-2.93;82.08
41102;BME280;26845;50.190;19.178;2023-01-29T08:55:16;99632.28;;;-2.96;82.26
41102;BME280;26845;50.190;19.178;2023-01-29T08:57:44;99635.13;;;-2.98;82.00
41102;BME280;26845;50.190;19.178;2023-01-29T09:00:10;99630.81;;;-2.97;82.00
41102;BME280;26845;50.190;19.178;2023-01-29T09:02:36;99627.90;;;-2.91;81.62
41102;BME280;26845;50.190;19.178;2023-01-29T09:05:02;99622.95;;;-2.88;82.07
41102;BME280;26845;50.190;19.178;2023-01-29T09:07:28;99628.23;;;-2.88;81.59
41102;BME280;26845;50.190;19.178;2023-01-29T09:09:55;99631.16;;;-2.90;80.86
41102;BME280;26845;50.190;19.178;2023-01-29T09:12:21;99628.23;;;-2.94;80.88
41102;BME280;26845;50.190;19.178;2023-01-29T09:14:47;99621.40;;;-2.96;81.00
41102;BME280;26845;50.190;19.178;2023-01-29T09:17:13;99614.67;;;-2.94;81.09
41102;BME280;26845;50.190;19.178;2023-01-29T09:19:40;99610.36;;;-2.89;80.90
41102;BME280;26845;50.190;19.178;2023-01-29T09:22:06;99606.89;;;-2.86;80.63
41102;BME280;26845;50.190;19.178;2023-01-29T09:24:32;99602.02;;;-2.84;80.67
41102;BME280;26845;50.190;19.178;2023-01-29T09:27:00;99597.92;;;-2.85;80.84
41102;BME280;26845;50.190;19.178;2023-01-29T09:29:25;99597.30;;;-2.84;81.09
41102;BME280;26845;50.190;19.178;2023-01-29T09:31:51;99598.21;;;-2.77;80.81
41102;BME280;26845;50.190;19.178;2023-01-29T09:34:18;99598.36;;;-2.69;80.50
41102;BME280;26845;50.190;19.178;2023-01-29T09:36:44;99596.13;;;-2.57;80.59
41102;BME280;26845;50.190;19.178;2023-01-29T09:39:10;99597.75;;;-2.36;80.55
41102;BME280;26845;50.190;19.178;2023-01-29T09:41:45;99596.26;;;-2.13;78.88
41102;BME280;26845;50.190;19.178;2023-01-29T09:44:44;99593.19;;;-1.89;79.03
41102;BME280;26845;50.190;19.178;2023-01-29T09:47:13;99591.98;;;-1.66;78.81
41102;BME280;26845;50.190;19.178;2023-01-29T09:49:49;99597.23;;;-1.31;78.77
41102;BME280;26845;50.190;19.178;2023-01-29T09:52:29;99596.77;;;-0.88;78.77
41102;BME280;26845;50.190;19.178;2023-01-29T09:55:17;99594.12;;;-0.81;75.45
41102;BME280;26845;50.190;19.178;2023-01-29T09:57:49;99594.41;;;-1.07;74.75
41102;BME280;26845;50.190;19.178;2023-01-29T10:01:25;99590.26;;;-1.30;75.54
41102;BME280;26845;50.190;19.178;2023-01-29T10:03:42;99582.79;;;-1.55;76.32
41102;BME280;26845;50.190;19.178;2023-01-29T10:07:36;99577.10;;;-1.74;76.85
41102;BME280;26845;50.190;19.178;2023-01-29T10:23:29;99540.91;;;-2.36;77.13
41102;BME280;26845;50.190;19.178;2023-01-29T10:25:56;99542.09;;;-2.38;77.75
41102;BME280;26845;50.190;19.178;2023-01-29T10:28:33;99540.54;;;-2.36;77.05
41102;BME280;26845;50.190;19.178;2023-01-29T10:31:10;99543.05;;;-2.37;76.77
41102;BME280;26845;50.190;19.178;2023-01-29T10:33:42;99529.02;;;-2.38;77.00
41102;BME280;26845;50.190;19.178;2023-01-29T10:36:37;99529.87;;;-2.40;75.66
41102;BME280;26845;50.190;19.178;2023-01-29T10:39:01;99521.09;;;-2.46;75.61
41102;BME280;26845;50.190;19.178;2023-01-29T10:46:59;99495.73;;;-2.49;75.31
41102;BME280;26845;50.190;19.178;2023-01-29T11:00:26;99463.48;;;-2.23;75.15
41102;BME280;26845;50.190;19.178;2023-01-29T11:02:54;99457.13;;;-2.17;75.22
41102;BME280;26845;50.190;19.178;2023-01-29T11:05:28;99452.21;;;-2.02;75.39
41102;BME280;26845;50.190;19.178;2023-01-29T11:08:07;99447.16;;;-1.69;74.54
41102;BME280;26845;50.190;19.178;2023-01-29T11:10:42;99439.73;;;-1.48;71.25
41102;BME280;26845;50.190;19.178;2023-01-29T11:13:13;99436.77;;;-1.54;72.85
41102;BME280;26845;50.190;19.178;2023-01-29T11:15:42;99436.66;;;-1.40;71.96
41102;BME280;26845;50.190;19.178;2023-01-29T11:18:11;99437.52;;;-1.30;70.83
41102;BME280;26845;50.190;19.178;2023-01-29T11:20:42;99430.67;;;-1.39;70.49
41102;BME280;26845;50.190;19.178;2023-01-29T11:23:35;99424.77;;;-1.53;70.95
41102;BME280;26845;50.190;19.178;2023-01-29T11:26:02;99424.17;;;-1.67;70.56
41102;BME280;26845;50.190;19.178;2023-01-29T11:28:42;99416.90;;;-1.81;70.87
41102;BME280;26845;50.190;19.178;2023-01-29T11:33:41;99400.69;;;-1.93;71.54
41102;BME280;26845;50.190;19.178;2023-01-29T11:39:24;99402.41;;;-2.00;71.75
41102;BME280;26845;50.190;19.178;2023-01-29T11:42:03;99398.25;;;-2.09;71.61
41102;BME280;26845;50.190;19.178;2023-01-29T11:49:37;99396.91;;;-2.12;72.61
41102;BME280;26845;50.190;19.178;2023-01-29T11:52:08;99394.94;;;-2.16;73.00
41102;BME280;26845;50.190;19.178;2023-01-29T11:54:38;99393.06;;;-2.18;72.59
41102;BME280;26845;50.190;19.178;2023-01-29T11:57:21;99394.11;;;-2.18;73.14
41102;BME280;26845;50.190;19.178;2023-01-29T11:59:50;99400.10;;;-2.12;72.50
41102;BME280;26845;50.190;19.178;2023-01-29T12:05:01;99392.45;;;-2.04;73.45
41102;BME280;26845;50.190;19.178;2023-01-29T12:07:29;99396.33;;;-1.98;72.72
41102;BME280;26845;50.190;19.178;2023-01-29T12:09:58;99397.83;;;-2.04;72.84
41102;BME280;26845;50.190;19.178;2023-01-29T12:15:16;99402.63;;;-2.13;73.13
41102;BME280;26845;50.190;19.178;2023-01-29T12:18:00;99405.04;;;-2.11;73.48
41102;BME280;26845;50.190;19.178;2023-01-29T12:20:34;99399.59;;;-2.11;73.06
41102;BME280;26845;50.190;19.178;2023-01-29T12:23:26;99391.70;;;-2.09;72.94
41102;BME280;26845;50.190;19.178;2023-01-29T12:26:01;99394.48;;;-2.06;72.86
41102;BME280;26845;50.190;19.178;2023-01-29T12:28:49;99394.42;;;-2.02;73.30
41102;BME280;26845;50.190;19.178;2023-01-29T12:34:50;99384.82;;;-2.01;72.34
41102;BME280;26845;50.190;19.178;2023-01-29T12:36:54;99384.80;;;-2.12;71.69
41102;BME280;26845;50.190;19.178;2023-01-29T12:39:21;99381.19;;;-2.17;72.89
41102;BME280;26845;50.190;19.178;2023-01-29T12:42:05;99376.80;;;-2.18;71.66
41102;BME280;26845;50.190;19.178;2023-01-29T12:44:37;99377.34;;;-2.16;71.99
41102;BME280;26845;50.190;19.178;2023-01-29T12:47:13;99367.27;;;-2.13;71.82
41102;BME280;26845;50.190;19.178;2023-01-29T12:49:40;99367.06;;;-2.09;72.48
41102;BME280;26845;50.190;19.178;2023-01-29T12:53:02;99360.84;;;-2.05;71.46
41102;BME280;26845;50.190;19.178;2023-01-29T12:55:12;99361.03;;;-2.04;71.53
41102;BME280;26845;50.190;19.178;2023-01-29T12:57:55;99361.34;;;-2.00;72.05
41102;BME280;26845;50.190;19.178;2023-01-29T13:00:25;99360.20;;;-1.93;71.72
41102;BME280;26845;50.190;19.178;2023-01-29T13:02:59;99358.23;;;-1.90;71.28
41102;BME280;26845;50.190;19.178;2023-01-29T13:05:29;99351.02;;;-1.84;72.14
41102;BME280;26845;50.190;19.178;2023-01-29T13:08:19;99353.94;;;-1.68;70.59
41102;BME280;26845;50.190;19.178;2023-01-29T13:10:51;99349.02;;;-1.65;70.02
41102;BME280;26845;50.190;19.178;2023-01-29T13:15:49;99334.74;;;-1.64;70.94
41102;BME280;26845;50.190;19.178;2023-01-29T13:20:49;99336.42;;;-1.32;70.24
41102;BME280;26845;50.190;19.178;2023-01-29T13:23:21;99335.98;;;-1.20;69.97
41102;BME280;26845;50.190;19.178;2023-01-29T13:25:54;99344.10;;;-1.03;70.27
41102;BME280;26845;50.190;19.178;2023-01-29T13:28:23;99339.79;;;-0.90;69.36
41102;BME280;26845;50.190;19.178;2023-01-29T13:31:09;99338.27;;;-0.86;68.63
41102;BME280;26845;50.190;19.178;2023-01-29T13:33:37;99327.27;;;-0.76;69.56
41102;BME280;26845;50.190;19.178;2023-01-29T13:36:15;99326.05;;;-0.66;68.60
41102;BME280;26845;50.190;19.178;2023-01-29T13:38:42;99325.44;;;-0.61;68.07
41102;BME280;26845;50.190;19.178;2023-01-29T13:41:09;99314.00;;;-0.56;69.45
41102;BME280;26845;50.190;19.178;2023-01-29T13:43:41;99322.60;;;-0.52;68.26
41102;BME280;26845;50.190;19.178;2023-01-29T13:46:16;99317.11;;;-0.58;67.69
41102;BME280;26845;50.190;19.178;2023-01-29T13:48:48;99313.92;;;-0.59;68.86
41102;BME280;26845;50.190;19.178;2023-01-29T13:51:20;99317.91;;;-0.58;67.95
41102;BME280;26845;50.190;19.178;2023-01-29T13:53:57;99316.81;;;-0.75;67.18
41102;BME280;26845;50.190;19.178;2023-01-29T13:56:46;99311.09;;;-0.92;68.30
41102;BME280;26845;50.190;19.178;2023-01-29T13:59:50;99309.58;;;-1.08;68.27
41102;BME280;26845;50.190;19.178;2023-01-29T14:02:27;99303.33;;;-1.21;68.84
41102;BME280;26845;50.190;19.178;2023-01-29T14:10:31;99289.98;;;-1.26;68.84
41102;BME280;26845;50.190;19.178;2023-01-29T14:15:37;99286.51;;;-1.33;68.88
41102;BME280;26845;50.190;19.178;2023-01-29T14:23:43;99283.86;;;-1.51;69.17
41102;BME280;26845;50.190;19.178;2023-01-29T14:29:19;99279.35;;;-1.57;68.50
41102;BME280;26845;50.190;19.178;2023-01-29T14:31:52;99282.47;;;-1.63;68.99
41102;BME280;26845;50.190;19.178;2023-01-29T14:34:23;99281.16;;;-1.65;69.12
41102;BME280;26845;50.190;19.178;2023-01-29T14:36:53;99277.63;;;-1.64;69.63
41102;BME280;26845;50.190;19.178;2023-01-29T14:39:30;99274.97;;;-1.63;69.91
41102;BME280;26845;50.190;19.178;2023-01-29T14:41:58;99279.38;;;-1.65;69.53
41102;BME280;26845;50.190;19.178;2023-01-29T14:52:50;99282.83;;;-1.73;70.29
41102;BME280;26845;50.190;19.178;2023-01-29T14:55:43;99287.59;;;-1.76;69.60
41102;BME280;26845;50.190;19.178;2023-01-29T14:58:15;99288.27;;;-1.77;70.62
41102;BME280;26845;50.190;19.178;2023-01-29T15:00:44;99282.45;;;-1.76;70.55
41102;BME280;26845;50.190;19.178;2023-01-29T15:03:38;99278.54;;;-1.75;70.66
41102;BME280;26845;50.190;19.178;2023-01-29T15:06:12;99277.13;;;-1.76;70.66
41102;BME280;26845;50.190;19.178;2023-01-29T15:08:46;99281.96;;;-1.78;70.70
41102;BME280;26845;50.190;19.178;2023-01-29T15:11:24;99282.70;;;-1.81;70.80
41102;BME280;26845;50.190;19.178;2023-01-29T15:19:47;99281.21;;;-1.92;70.97
41102;BME280;26845;50.190;19.178;2023-01-29T15:22:22;99280.78;;;-1.95;71.22
41102;BME280;26845;50.190;19.178;2023-01-29T15:25:04;99284.38;;;-1.99;71.29
41102;BME280;26845;50.190;19.178;2023-01-29T15:27:31;99285.02;;;-2.01;71.28
41102;BME280;26845;50.190;19.178;2023-01-29T15:30:03;99284.56;;;-2.00;71.27